Time;durP1;ratioP1;P1;durP2;ratioP2;P2;SDS_P1;SDS_P2;PMS_P1;PMS_P2;Temp;Humidity;BMP_temperature;BMP_pressure;BME280_temperature;BME280_humidity;BME280_pressure;Samples;Min_cycle;Max_cycle;Signal;HPM_P1;HPM_P2
2023/07/24 00:01:22;;;;;;;9.80;7.30;;;19.40;99.90;;;;;;5007160;28;20395;-87
2023/07/24 00:03:47;;;;;;;8.40;6.50;;;20.50;99.90;;;;;;4992304;28;20395;-87
2023/07/24 00:06:13;;;;;;;8.48;7.50;;;19.30;99.90;;;;;;4992098;28;20406;-87
2023/07/24 00:08:38;;;;;;;8.10;6.60;;;18.80;99.90;;;;;;4991935;28;20398;-87
2023/07/24 00:11:09;;;;;;;7.95;6.85;;;19.10;99.90;;;;;;5002960;28;20879;-87
2023/07/24 00:13:35;;;;;;;8.85;6.80;;;19.20;99.90;;;;;;4992329;28;20841;-87
2023/07/24 00:16:05;;;;;;;9.55;7.50;;;19.20;99.90;;;;;;5008571;28;20514;-87
2023/07/24 00:18:31;;;;;;;8.25;6.50;;;19.10;99.90;;;;;;4986567;28;20396;-87
2023/07/24 00:20:56;;;;;;;9.33;7.50;;;19.10;99.90;;;;;;4972322;28;20398;-87
2023/07/24 00:23:22;;;;;;;9.88;7.63;;;19.00;99.90;;;;;;4972773;28;20953;-88
2023/07/24 00:25:47;;;;;;;8.60;7.70;;;19.10;99.90;;;;;;4973958;28;20479;-87
2023/07/24 00:28:13;;;;;;;9.00;7.88;;;18.90;99.90;;;;;;4975529;28;20964;-87
2023/07/24 00:30:38;;;;;;;8.30;6.80;;;20.10;99.90;;;;;;5010740;28;20397;-87
2023/07/24 00:33:04;;;;;;;9.10;7.50;;;20.50;99.90;;;;;;4992120;28;20393;-87
2023/07/24 00:35:29;;;;;;;8.97;6.90;;;18.90;99.90;;;;;;4971971;28;20424;-87
2023/07/24 00:37:55;;;;;;;9.63;7.50;;;20.30;99.90;;;;;;4971775;28;20396;-87
2023/07/24 00:40:20;;;;;;;9.50;6.90;;;18.90;99.90;;;;;;4972838;28;20824;-88
2023/07/24 00:42:47;;;;;;;7.80;7.00;;;18.10;99.90;;;;;;4982215;28;20968;-87
2023/07/24 00:45:13;;;;;;;7.90;6.70;;;19.00;99.90;;;;;;4992433;28;20493;-87
2023/07/24 00:47:38;;;;;;;8.98;7.38;;;18.70;99.90;;;;;;4992369;28;20425;-87
2023/07/24 00:50:05;;;;;;;9.30;7.13;;;18.80;99.90;;;;;;4991113;28;20394;-87
2023/07/24 00:52:30;;;;;;;8.50;7.25;;;18.70;99.90;;;;;;4990448;28;20409;-87
2023/07/24 00:54:56;;;;;;;9.47;7.57;;;18.70;99.90;;;;;;4990369;28;20399;-87
2023/07/24 00:57:22;;;;;;;10.05;7.78;;;18.50;99.90;;;;;;4991212;28;20386;-87
2023/07/24 00:59:48;;;;;;;9.63;7.50;;;18.80;99.90;;;;;;4978381;28;20407;-87
2023/07/24 01:02:14;;;;;;;7.67;6.60;;;18.70;99.90;;;;;;4971513;28;20392;-87
2023/07/24 01:04:39;;;;;;;10.20;7.75;;;18.70;99.90;;;;;;4974368;28;20386;-87
2023/07/24 01:07:05;;;;;;;8.10;7.22;;;18.70;99.90;;;;;;4993519;28;20430;-87
2023/07/24 01:09:31;;;;;;;9.50;7.07;;;18.20;99.90;;;;;;4988370;28;20917;-87
2023/07/24 01:12:02;;;;;;;7.57;6.63;;;18.70;99.90;;;;;;5059750;23;20398;-81
2023/07/24 01:14:52;;;;;;;7.77;6.60;;;18.60;99.90;;;;;;4970108;29;20477;-83
2023/07/24 01:17:30;;;;;;;8.68;7.30;;;18.70;99.90;;;;;;4950922;29;20401;-82
2023/07/24 01:19:59;;;;;;;8.20;6.90;;;18.70;99.90;;;;;;4963955;29;20400;-83
2023/07/24 01:22:32;;;;;;;10.02;7.00;;;18.70;99.90;;;;;;4940430;29;20399;-83
2023/07/24 01:24:57;;;;;;;10.05;7.40;;;18.70;99.90;;;;;;4925640;29;20415;-84
2023/07/24 01:27:26;;;;;;;7.93;7.03;;;18.80;99.90;;;;;;4960931;29;20454;-83
2023/07/24 01:29:52;;;;;;;9.60;7.00;;;18.80;99.90;;;;;;4946074;29;20461;-83
2023/07/24 01:32:19;;;;;;;7.70;6.90;;;19.50;99.90;;;;;;4961193;28;20413;-84
2023/07/24 01:34:45;;;;;;;8.77;7.07;;;18.80;99.90;;;;;;4954926;29;20425;-84
2023/07/24 01:37:12;;;;;;;8.35;7.40;;;18.70;99.90;;;;;;4962929;29;20452;-83
2023/07/24 01:39:41;;;;;;;8.68;7.20;;;18.70;99.90;;;;;;4961914;29;20392;-83
2023/07/24 01:42:06;;;;;;;10.80;7.22;;;18.70;99.90;;;;;;4944751;29;20742;-82
2023/07/24 01:44:32;;;;;;;9.80;7.75;;;18.80;99.90;;;;;;4955526;29;20407;-84
2023/07/24 01:46:58;;;;;;;8.60;7.03;;;18.80;99.90;;;;;;4961768;29;20855;-84
2023/07/24 01:49:23;;;;;;;9.17;7.20;;;19.30;99.90;;;;;;4976943;28;20469;-83
2023/07/24 01:51:49;;;;;;;8.95;7.22;;;20.70;99.90;;;;;;4975342;28;20462;-84
2023/07/24 01:54:14;;;;;;;9.60;7.60;;;18.90;99.90;;;;;;4963483;29;20449;-83
2023/07/24 01:56:40;;;;;;;9.20;7.00;;;18.90;99.90;;;;;;4936133;29;20408;-83
2023/07/24 01:59:05;;;;;;;8.50;7.57;;;19.50;99.90;;;;;;4924715;29;20407;-83
2023/07/24 02:01:31;;;;;;;9.80;7.73;;;18.90;99.90;;;;;;4961604;29;20425;-83
2023/07/24 02:03:57;;;;;;;11.27;7.63;;;18.80;99.90;;;;;;4961981;28;20389;-83
2023/07/24 02:06:22;;;;;;;8.77;7.33;;;18.80;99.90;;;;;;4961941;29;20417;-83
2023/07/24 02:08:48;;;;;;;8.33;6.60;;;18.90;99.90;;;;;;4960788;29;20394;-84
2023/07/24 02:11:18;;;;;;;7.80;7.00;;;18.80;99.90;;;;;;4920474;29;20429;-83
2023/07/24 02:13:44;;;;;;;8.97;6.93;;;19.20;99.90;;;;;;4930140;29;20410;-84
2023/07/24 02:16:13;;;;;;;8.63;7.10;;;18.80;99.90;;;;;;4944284;29;20409;-83
2023/07/24 02:18:41;;;;;;;9.45;7.25;;;18.80;99.90;;;;;;4964024;29;20429;-84
2023/07/24 02:21:07;;;;;;;9.13;7.10;;;18.80;99.90;;;;;;4947249;29;20762;-83
2023/07/24 02:23:32;;;;;;;10.35;7.13;;;18.80;99.90;;;;;;4934294;29;20425;-82
2023/07/24 02:25:58;;;;;;;7.77;6.73;;;18.70;99.90;;;;;;4909798;29;20405;-84
2023/07/24 02:28:23;;;;;;;8.55;7.60;;;18.70;99.90;;;;;;4907650;29;20425;-82
2023/07/24 02:30:51;;;;;;;8.87;7.47;;;18.80;99.90;;;;;;4919647;29;20398;-81
2023/07/24 02:33:16;;;;;;;9.32;7.45;;;18.70;99.90;;;;;;4940859;29;20431;-83
2023/07/24 02:35:42;;;;;;;8.43;6.70;;;19.60;99.90;;;;;;4924750;29;20403;-83
2023/07/24 02:38:08;;;;;;;8.23;7.32;;;18.80;99.90;;;;;;4926010;29;20764;-83
2023/07/24 02:40:35;;;;;;;9.70;6.72;;;19.00;99.90;;;;;;4945602;29;20421;-83
2023/07/24 02:43:00;;;;;;;8.82;6.82;;;18.80;99.90;;;;;;4944589;29;20401;-84
2023/07/24 02:45:26;;;;;;;8.77;7.47;;;18.80;99.90;;;;;;4934955;29;20411;-84
2023/07/24 02:47:51;;;;;;;8.55;7.20;;;18.80;99.90;;;;;;4931387;28;20426;-82
2023/07/24 02:50:17;;;;;;;7.57;6.77;;;18.80;99.90;;;;;;4939215;28;20410;-83
2023/07/24 02:52:42;;;;;;;8.50;7.30;;;18.70;99.90;;;;;;4925761;29;20396;-85
2023/07/24 02:55:08;;;;;;;7.23;6.53;;;18.80;99.90;;;;;;4948184;29;20409;-83
2023/07/24 02:57:33;;;;;;;8.97;7.07;;;18.70;99.90;;;;;;4961740;29;20409;-82
2023/07/24 02:59:59;;;;;;;8.75;7.40;;;18.70;99.90;;;;;;4961155;29;20473;-83
2023/07/24 03:02:24;;;;;;;10.03;7.43;;;18.60;99.90;;;;;;4945185;29;21178;-84
2023/07/24 03:04:50;;;;;;;9.35;7.22;;;18.70;99.90;;;;;;4942416;29;20422;-83
2023/07/24 03:07:17;;;;;;;10.02;7.53;;;19.10;99.90;;;;;;4942813;29;20406;-82
2023/07/24 03:09:42;;;;;;;10.23;7.57;;;18.60;99.90;;;;;;4942213;29;20387;-83
2023/07/24 03:12:08;;;;;;;7.75;6.95;;;18.70;99.90;;;;;;4942525;29;20395;-84
2023/07/24 03:14:34;;;;;;;7.82;6.75;;;18.60;99.90;;;;;;4925149;29;20395;-84
2023/07/24 03:16:59;;;;;;;10.83;7.30;;;18.70;99.90;;;;;;4945101;29;20398;-82
2023/07/24 03:19:25;;;;;;;7.95;6.90;;;18.80;99.90;;;;;;4954160;29;20452;-82
2023/07/24 03:21:50;;;;;;;7.77;6.97;;;18.00;99.90;;;;;;4971813;28;20398;-82
2023/07/24 03:24:16;;;;;;;9.38;7.30;;;18.80;99.90;;;;;;4968554;29;20574;-83
2023/07/24 03:26:42;;;;;;;8.70;6.55;;;19.00;99.90;;;;;;4949617;29;20416;-83
2023/07/24 03:29:08;;;;;;;8.52;7.20;;;18.80;99.90;;;;;;4948151;29;20422;-83
2023/07/24 03:31:33;;;;;;;9.03;7.40;;;18.80;99.90;;;;;;4969526;29;20461;-84
2023/07/24 03:33:59;;;;;;;11.03;7.90;;;19.80;99.90;;;;;;4944238;29;20398;-84
2023/07/24 03:36:24;;;;;;;7.68;6.60;;;18.60;99.90;;;;;;4949630;29;20433;-83
2023/07/24 03:38:50;;;;;;;8.20;7.30;;;18.10;99.90;;;;;;4962756;29;20408;-83
2023/07/24 03:41:15;;;;;;;10.02;7.57;;;18.60;99.90;;;;;;4930303;29;20431;-84
2023/07/24 03:43:41;;;;;;;9.10;6.90;;;19.30;99.90;;;;;;4948070;29;20403;-84
2023/07/24 03:46:08;;;;;;;9.13;7.43;;;18.50;99.90;;;;;;4934300;29;20463;-83
2023/07/24 03:48:36;;;;;;;8.00;7.07;;;18.50;99.90;;;;;;4934897;29;20402;-82
2023/07/24 03:51:02;;;;;;;8.68;7.40;;;18.60;99.90;;;;;;4928730;29;20405;-81
2023/07/24 03:53:28;;;;;;;8.90;7.18;;;18.50;99.90;;;;;;4927771;29;20412;-83
2023/07/24 03:55:54;;;;;;;8.30;6.93;;;18.50;99.90;;;;;;4964391;29;20468;-83
2023/07/24 03:58:19;;;;;;;8.25;6.78;;;18.50;99.90;;;;;;4977050;28;20407;-81
2023/07/24 04:00:45;;;;;;;9.33;7.13;;;18.50;99.90;;;;;;4980128;28;20401;-82
2023/07/24 04:03:11;;;;;;;9.67;7.23;;;18.60;99.90;;;;;;4979229;28;20477;-83
2023/07/24 04:05:36;;;;;;;10.00;7.35;;;18.60;99.90;;;;;;4952853;29;20427;-83
2023/07/24 04:08:03;;;;;;;8.43;7.47;;;18.70;99.90;;;;;;4953450;29;20467;-84
2023/07/24 04:10:30;;;;;;;9.60;7.63;;;18.80;99.90;;;;;;4952950;29;20399;-82
2023/07/24 04:12:56;;;;;;;8.73;7.70;;;18.80;99.90;;;;;;4947157;29;20459;-83
2023/07/24 04:15:22;;;;;;;9.55;7.32;;;18.80;99.90;;;;;;4954809;29;20508;-85
2023/07/24 04:17:48;;;;;;;7.50;6.60;;;18.80;99.90;;;;;;4951663;29;20430;-83
2023/07/24 04:20:13;;;;;;;8.35;7.25;;;18.80;99.90;;;;;;4970908;29;20424;-83
2023/07/24 04:22:39;;;;;;;7.77;6.97;;;18.80;99.90;;;;;;4953569;29;20457;-83
2023/07/24 04:25:05;;;;;;;8.67;6.83;;;18.80;99.90;;;;;;4963460;29;20418;-82
2023/07/24 04:27:31;;;;;;;8.00;7.20;;;18.80;99.90;;;;;;4940962;28;20403;-81
2023/07/24 04:29:56;;;;;;;8.45;7.28;;;18.80;99.90;;;;;;4944375;29;20400;-81
2023/07/24 04:32:22;;;;;;;8.33;6.40;;;18.70;99.90;;;;;;4977038;28;20406;-81
2023/07/24 04:34:47;;;;;;;11.87;7.17;;;18.80;99.90;;;;;;4945170;28;20396;-80
2023/07/24 04:37:13;;;;;;;9.73;7.40;;;18.80;99.90;;;;;;4960407;28;20410;-81
2023/07/24 04:39:39;;;;;;;11.83;7.60;;;18.70;99.90;;;;;;4944104;28;20399;-81
2023/07/24 04:42:05;;;;;;;8.70;6.90;;;18.80;99.90;;;;;;4973081;28;20417;-81
2023/07/24 04:44:31;;;;;;;7.93;7.13;;;18.80;99.90;;;;;;4979861;28;20389;-81
2023/07/24 04:46:58;;;;;;;8.50;6.97;;;18.70;99.90;;;;;;4963068;28;20452;-80
2023/07/24 04:49:24;;;;;;;9.30;7.20;;;18.70;99.90;;;;;;4963176;28;20389;-80
2023/07/24 04:51:50;;;;;;;8.55;7.32;;;18.90;99.90;;;;;;4948433;28;20417;-81
2023/07/24 04:54:31;;;;;;;8.88;7.20;;;19.00;99.90;;;;;;4924835;28;20397;-83
2023/07/24 04:56:57;;;;;;;9.30;7.10;;;18.90;99.90;;;;;;4940439;28;20409;-81
2023/07/24 04:59:23;;;;;;;8.33;7.03;;;20.40;99.90;;;;;;4940078;28;20404;-81
2023/07/24 05:01:49;;;;;;;8.88;6.60;;;19.20;99.90;;;;;;4939735;29;20488;-81
2023/07/24 05:04:16;;;;;;;8.18;6.70;;;20.00;99.90;;;;;;4924236;28;20413;-87
2023/07/24 05:06:41;;;;;;;11.43;6.73;;;20.20;99.90;;;;;;4921446;29;20433;-84
2023/07/24 05:09:07;;;;;;;7.73;6.00;;;22.40;99.90;;;;;;4937357;29;20944;-84
2023/07/24 05:11:33;;;;;;;8.77;6.00;;;20.00;99.90;;;;;;4977936;28;20474;-81
2023/07/24 05:13:58;;;;;;;7.10;6.23;;;22.70;99.90;;;;;;4978898;28;20405;-81
2023/07/24 05:16:24;;;;;;;8.32;6.18;;;20.90;99.90;;;;;;4979186;28;20388;-82
2023/07/24 05:18:49;;;;;;;7.90;5.10;;;20.80;99.90;;;;;;4962853;28;20406;-82
2023/07/24 05:21:15;;;;;;;7.70;4.80;;;21.00;99.90;;;;;;4979247;28;20472;-80
2023/07/24 05:23:41;;;;;;;7.57;5.00;;;21.20;99.90;;;;;;4962784;28;20405;-82
2023/07/24 05:26:06;;;;;;;5.60;4.67;;;21.30;99.90;;;;;;4979327;28;20480;-81
2023/07/24 05:28:32;;;;;;;6.18;4.88;;;21.40;99.90;;;;;;4969997;28;20470;-80
2023/07/24 05:31:02;;;;;;;7.35;5.38;;;20.60;99.90;;;;;;4966259;28;20408;-81
2023/07/24 05:33:28;;;;;;;5.75;5.10;;;21.40;99.90;;;;;;4951992;28;20400;-82
2023/07/24 05:36:02;;;;;;;7.00;5.30;;;21.30;99.90;;;;;;4939812;28;20389;-82
2023/07/24 05:38:29;;;;;;;8.65;6.00;;;21.30;99.90;;;;;;4950262;28;20403;-80
2023/07/24 05:40:59;;;;;;;5.90;5.20;;;21.20;99.90;;;;;;4959559;28;20387;-81
2023/07/24 05:43:24;;;;;;;6.93;5.13;;;21.00;99.90;;;;;;4955969;28;20407;-82
2023/07/24 05:45:51;;;;;;;7.10;5.80;;;20.50;99.90;;;;;;4955492;29;20455;-82
2023/07/24 05:48:17;;;;;;;6.13;5.30;;;20.40;99.90;;;;;;4953633;29;20427;-83
2023/07/24 05:50:43;;;;;;;8.98;5.80;;;20.80;99.90;;;;;;4956256;29;20393;-82
2023/07/24 05:53:08;;;;;;;6.70;5.60;;;21.00;99.90;;;;;;4950734;29;20411;-84
2023/07/24 05:55:34;;;;;;;7.20;5.28;;;20.80;99.90;;;;;;4937356;29;20842;-84
2023/07/24 05:57:59;;;;;;;7.67;4.70;;;21.00;99.90;;;;;;4938683;29;20404;-82
2023/07/24 06:00:25;;;;;;;6.72;5.10;;;22.20;99.90;;;;;;4947202;29;20399;-81
2023/07/24 06:02:50;;;;;;;6.90;5.33;;;21.20;99.90;;;;;;4944830;29;20412;-83
2023/07/24 06:05:16;;;;;;;6.30;4.85;;;19.70;99.90;;;;;;4937677;29;20423;-83
2023/07/24 06:07:41;;;;;;;4.97;4.47;;;21.10;99.90;;;;;;4953365;29;20399;-85
2023/07/24 06:10:07;;;;;;;6.17;4.90;;;22.70;99.90;;;;;;4955232;29;20497;-84
2023/07/24 06:12:33;;;;;;;5.30;4.40;;;21.20;99.90;;;;;;4937233;29;20406;-83
2023/07/24 06:14:58;;;;;;;5.00;4.50;;;21.60;99.90;;;;;;4939273;29;20752;-82
2023/07/24 06:17:24;;;;;;;5.70;4.20;;;21.80;99.90;;;;;;4937118;29;20926;-84
2023/07/24 06:19:49;;;;;;;4.50;4.03;;;21.90;99.90;;;;;;4916112;29;20419;-83
2023/07/24 06:22:15;;;;;;;7.28;4.78;;;22.10;99.90;;;;;;4949064;29;20403;-83
2023/07/24 06:24:41;;;;;;;4.27;3.87;;;22.00;99.90;;;;;;4956731;28;20408;-82
2023/07/24 06:27:06;;;;;;;6.15;4.40;;;22.10;99.90;;;;;;4953565;29;20423;-83
2023/07/24 06:29:32;;;;;;;4.78;3.60;;;22.20;99.90;;;;;;4919402;29;20402;-84
2023/07/24 06:31:58;;;;;;;4.93;3.78;;;22.30;99.90;;;;;;4940764;29;20391;-85
2023/07/24 06:34:23;;;;;;;4.30;3.80;;;22.20;99.90;;;;;;4921334;29;20404;-83
2023/07/24 06:36:49;;;;;;;5.13;4.03;;;22.60;99.90;;;;;;4931948;29;20416;-82
2023/07/24 06:39:15;;;;;;;4.57;3.83;;;22.00;99.90;;;;;;4957279;29;20423;-82
2023/07/24 06:41:43;;;;;;;4.25;3.85;;;22.50;99.90;;;;;;4955576;28;20423;-83
2023/07/24 06:44:09;;;;;;;4.82;3.70;;;22.60;99.90;;;;;;4940939;29;20403;-83
2023/07/24 06:46:35;;;;;;;3.90;3.30;;;22.70;99.90;;;;;;4925931;29;20424;-85
2023/07/24 06:49:00;;;;;;;4.22;3.60;;;22.70;99.90;;;;;;4909795;29;20680;-84
2023/07/24 06:51:26;;;;;;;5.90;3.70;;;23.60;99.90;;;;;;4908053;29;20407;-83
2023/07/24 06:53:51;;;;;;;5.90;3.00;;;22.80;99.90;;;;;;4921136;29;20465;-84
2023/07/24 06:56:17;;;;;;;3.80;3.20;;;24.00;99.90;;;;;;4920256;29;20413;-84
2023/07/24 06:58:42;;;;;;;3.50;2.90;;;22.70;99.90;;;;;;4933655;29;20468;-83
2023/07/24 07:01:08;;;;;;;4.30;3.37;;;22.80;99.90;;;;;;4934817;29;20805;-82
2023/07/24 07:03:37;;;;;;;4.22;3.25;;;22.70;99.90;;;;;;4921885;29;20923;-83
2023/07/24 07:06:03;;;;;;;8.35;4.05;;;23.90;99.90;;;;;;4922266;29;20469;-83
2023/07/24 07:08:31;;;;;;;4.80;3.70;;;23.50;99.90;;;;;;4928345;29;20944;-83
2023/07/24 07:11:01;;;;;;;7.30;4.00;;;23.00;99.90;;;;;;4929269;29;20392;-85
2023/07/24 07:13:27;;;;;;;6.30;3.65;;;23.00;99.90;;;;;;4943128;29;20436;-83
2023/07/24 07:15:52;;;;;;;4.65;3.85;;;22.70;99.90;;;;;;4953869;29;20405;-84
2023/07/24 07:18:18;;;;;;;5.72;4.30;;;22.90;99.90;;;;;;4944693;29;20506;-84
2023/07/24 07:20:47;;;;;;;5.33;3.60;;;23.20;99.90;;;;;;5001204;23;20527;-86
2023/07/24 07:23:13;;;;;;;4.75;4.10;;;23.30;99.90;;;;;;5015840;28;20397;-85
2023/07/24 07:25:39;;;;;;;5.40;4.20;;;23.90;99.90;;;;;;5013658;28;20912;-85
2023/07/24 07:28:04;;;;;;;6.07;4.10;;;23.30;99.90;;;;;;5013486;28;20423;-87
2023/07/24 07:30:30;;;;;;;4.50;4.10;;;23.20;99.90;;;;;;5014463;28;20757;-85
2023/07/24 07:32:55;;;;;;;4.10;3.70;;;23.20;99.90;;;;;;5013615;28;20823;-85
2023/07/24 07:35:21;;;;;;;3.97;3.57;;;23.20;99.90;;;;;;5016015;28;20479;-84
2023/07/24 07:37:46;;;;;;;5.72;4.25;;;22.90;99.90;;;;;;5014359;28;20817;-85
2023/07/24 07:40:12;;;;;;;6.73;4.50;;;23.10;99.90;;;;;;5002721;28;20762;-84
2023/07/24 07:42:37;;;;;;;4.90;4.40;;;21.90;99.90;;;;;;4995080;28;20459;-84
2023/07/24 07:45:03;;;;;;;4.57;3.90;;;20.80;99.90;;;;;;4995381;28;20391;-85
2023/07/24 07:47:29;;;;;;;7.20;4.30;;;21.50;99.90;;;;;;4995424;28;20390;-84
2023/07/24 07:49:55;;;;;;;6.13;4.80;;;21.30;99.90;;;;;;5006468;28;20396;-84
2023/07/24 07:52:21;;;;;;;5.20;4.30;;;21.10;99.90;;;;;;4996813;28;20481;-85
2023/07/24 07:54:50;;;;;;;7.82;4.75;;;20.90;99.90;;;;;;4996846;28;20383;-84
2023/07/24 07:57:15;;;;;;;5.70;4.50;;;20.30;99.90;;;;;;5008324;28;20918;-85
2023/07/24 07:59:41;;;;;;;6.70;5.20;;;20.20;99.90;;;;;;5016455;28;20488;-84
2023/07/24 08:02:07;;;;;;;6.20;5.30;;;19.70;99.90;;;;;;5014702;28;20463;-83
2023/07/24 08:04:33;;;;;;;7.88;5.78;;;19.90;99.90;;;;;;5013944;28;20393;-85
2023/07/24 08:06:58;;;;;;;6.65;5.53;;;20.30;99.90;;;;;;5005271;28;20763;-84
2023/07/24 08:09:24;;;;;;;8.90;6.97;;;19.70;99.90;;;;;;5008667;28;20397;-84
2023/07/24 08:11:51;;;;;;;7.10;6.13;;;19.60;99.90;;;;;;5015010;28;20395;-85
2023/07/24 08:14:17;;;;;;;9.10;5.47;;;19.60;99.90;;;;;;5012255;28;20385;-84
2023/07/24 08:16:43;;;;;;;6.10;5.50;;;19.50;99.90;;;;;;5012252;28;20399;-85
2023/07/24 08:19:08;;;;;;;6.70;6.00;;;19.60;99.90;;;;;;5011264;28;20393;-84
2023/07/24 08:21:34;;;;;;;6.47;5.60;;;19.60;99.90;;;;;;5011342;28;20400;-84
2023/07/24 08:24:01;;;;;;;6.10;5.50;;;19.60;99.90;;;;;;5013536;28;20400;-83
2023/07/24 08:26:27;;;;;;;6.35;5.75;;;19.70;99.90;;;;;;5008320;28;20409;-83
2023/07/24 08:28:53;;;;;;;6.47;5.13;;;19.80;99.90;;;;;;4992902;28;20395;-84
2023/07/24 08:31:19;;;;;;;7.18;5.10;;;19.90;99.90;;;;;;4993676;28;20762;-84
2023/07/24 08:33:44;;;;;;;6.15;5.03;;;19.90;99.90;;;;;;5001740;28;20406;-83
2023/07/24 08:36:12;;;;;;;6.38;5.40;;;19.70;99.90;;;;;;5010974;28;20778;-83
2023/07/24 08:38:38;;;;;;;7.05;5.40;;;19.80;99.90;;;;;;4994367;28;20826;-83
2023/07/24 08:41:11;;;;;;;7.47;5.80;;;19.80;99.90;;;;;;4999092;28;20396;-83
2023/07/24 08:43:39;;;;;;;7.88;5.60;;;19.70;99.90;;;;;;5016166;28;20403;-83
2023/07/24 08:46:05;;;;;;;5.90;5.00;;;19.60;99.90;;;;;;5015666;28;20800;-84
2023/07/24 08:48:35;;;;;;;6.70;5.40;;;19.50;99.90;;;;;;5014069;28;20408;-83
2023/07/24 08:51:02;;;;;;;7.68;5.70;;;19.50;99.90;;;;;;5012831;28;20408;-83
2023/07/24 08:53:30;;;;;;;5.72;5.20;;;19.40;99.90;;;;;;4996656;28;20387;-83
2023/07/24 08:55:56;;;;;;;9.18;6.10;;;20.20;99.90;;;;;;4994069;28;20394;-83
2023/07/24 08:58:22;;;;;;;9.68;6.63;;;19.40;99.90;;;;;;5013478;28;20400;-83
2023/07/24 09:00:47;;;;;;;11.27;6.63;;;19.40;99.90;;;;;;5010407;28;20530;-84
2023/07/24 09:03:13;;;;;;;7.15;5.75;;;19.30;99.90;;;;;;5017504;28;20393;-84
2023/07/24 09:05:39;;;;;;;6.90;5.67;;;19.30;99.90;;;;;;5017992;28;20491;-84
2023/07/24 09:08:04;;;;;;;6.68;5.82;;;19.40;99.90;;;;;;5015432;28;20817;-85
2023/07/24 09:10:30;;;;;;;8.30;6.40;;;19.30;99.90;;;;;;5013901;28;20437;-84
2023/07/24 09:12:56;;;;;;;7.97;5.80;;;19.20;99.90;;;;;;5016784;28;20392;-84
2023/07/24 09:15:21;;;;;;;6.70;6.00;;;19.10;99.90;;;;;;5011200;28;20531;-87
2023/07/24 09:17:51;;;;;;;7.60;6.10;;;19.20;99.90;;;;;;5006743;28;20395;-87
2023/07/24 09:20:20;;;;;;;8.05;6.70;;;20.10;99.90;;;;;;5009845;28;20405;-87
2023/07/24 09:22:51;;;;;;;11.32;7.05;;;19.30;99.90;;;;;;5008732;28;20483;-87
2023/07/24 09:25:16;;;;;;;11.02;7.70;;;21.00;99.90;;;;;;5011009;28;20737;-88
2023/07/24 09:27:42;;;;;;;12.10;6.30;;;17.90;99.90;;;;;;5012374;28;20389;-87
2023/07/24 09:30:14;;;;;;;10.27;5.47;;;18.00;99.90;;;;;;5010197;28;20385;-84
2023/07/24 09:32:40;;;;;;;6.07;4.97;;;18.30;99.90;;;;;;5004728;28;20408;-85
2023/07/24 09:35:28;;;;;;;7.15;4.88;;;17.90;99.90;;;;;;5011116;28;20407;-84
2023/07/24 09:38:10;;;;;;;6.13;4.20;;;17.80;99.90;;;;;;5010775;28;20413;-86
2023/07/24 09:40:41;;;;;;;5.93;4.85;;;17.90;99.90;;;;;;5006556;28;20388;-86
2023/07/24 09:43:24;;;;;;;7.43;5.10;;;18.00;99.90;;;;;;5016866;28;20405;-82
2023/07/24 09:45:50;;;;;;;6.18;4.20;;;18.10;99.90;;;;;;5024054;28;20400;-79
2023/07/24 09:48:18;;;;;;;4.57;3.83;;;18.00;99.90;;;;;;5024778;28;20393;-81
2023/07/24 09:50:46;;;;;;;5.80;3.90;;;18.00;99.90;;;;;;5012050;28;20389;-83
2023/07/24 09:53:18;;;;;;;5.60;4.35;;;18.10;99.90;;;;;;5014226;28;20409;-81
2023/07/24 09:56:08;;;;;;;7.20;4.82;;;18.00;99.90;;;;;;5016717;28;20900;-81
2023/07/24 09:58:35;;;;;;;4.45;4.05;;;18.00;99.90;;;;;;5016143;28;20492;-82
2023/07/24 10:01:06;;;;;;;5.20;4.05;;;18.10;99.90;;;;;;5004832;28;20812;-84
2023/07/24 10:03:38;;;;;;;5.63;3.70;;;18.10;99.90;;;;;;5013894;28;20388;-82
2023/07/24 10:06:04;;;;;;;4.70;3.78;;;18.90;99.90;;;;;;5019798;28;20412;-82
2023/07/24 10:08:31;;;;;;;8.13;4.93;;;18.00;99.90;;;;;;5012879;28;20425;-82
2023/07/24 10:11:01;;;;;;;6.90;4.40;;;18.00;99.90;;;;;;5010011;28;20799;-81
2023/07/24 10:13:27;;;;;;;6.50;4.23;;;18.00;99.90;;;;;;5013475;28;20908;-81
2023/07/24 10:15:52;;;;;;;5.93;4.50;;;17.90;99.90;;;;;;5013965;28;20415;-81
2023/07/24 10:18:29;;;;;;;4.90;3.87;;;17.90;99.90;;;;;;5015895;28;20420;-81
2023/07/24 10:21:04;;;;;;;5.05;3.97;;;17.80;99.90;;;;;;5005478;28;20476;-80
2023/07/24 10:23:30;;;;;;;4.70;3.30;;;17.80;99.90;;;;;;5012417;28;20408;-80
2023/07/24 10:26:01;;;;;;;4.93;3.23;;;17.60;99.90;;;;;;5012626;28;20995;-80
2023/07/24 10:28:38;;;;;;;4.53;3.40;;;17.60;99.90;;;;;;5007593;28;20413;-80
2023/07/24 10:31:25;;;;;;;4.30;3.28;;;17.70;99.90;;;;;;5011178;28;20419;-80
2023/07/24 10:33:51;;;;;;;4.37;3.77;;;18.00;99.90;;;;;;5007169;28;20792;-81
2023/07/24 10:36:19;;;;;;;5.40;4.40;;;18.40;99.90;;;;;;5008303;28;20395;-84
2023/07/24 10:38:45;;;;;;;5.60;4.03;;;18.80;99.90;;;;;;5011292;28;20392;-82
2023/07/24 10:41:11;;;;;;;4.57;3.80;;;19.20;99.90;;;;;;5010885;28;20420;-81
2023/07/24 10:43:48;;;;;;;4.90;4.00;;;19.30;99.90;;;;;;5001258;28;20410;-82
2023/07/24 10:46:15;;;;;;;4.72;4.30;;;19.30;99.90;;;;;;5003729;28;20922;-82
2023/07/24 10:48:45;;;;;;;4.70;3.87;;;19.50;99.90;;;;;;5001498;28;20427;-80
2023/07/24 10:51:14;;;;;;;5.05;3.50;;;19.60;99.90;;;;;;4999370;28;20925;-81
2023/07/24 10:53:45;;;;;;;3.97;3.30;;;19.70;99.90;;;;;;5011617;28;20392;-83
2023/07/24 10:56:10;;;;;;;3.60;3.23;;;19.80;99.90;;;;;;5002689;28;20488;-81
2023/07/24 10:58:36;;;;;;;3.67;3.13;;;19.90;99.90;;;;;;5002434;28;21004;-82
2023/07/24 11:01:04;;;;;;;3.80;3.40;;;20.10;99.90;;;;;;5001277;28;20424;-81
2023/07/24 11:03:31;;;;;;;4.00;3.08;;;20.20;99.90;;;;;;4998996;28;20405;-82
2023/07/24 11:05:58;;;;;;;3.03;2.67;;;20.30;99.90;;;;;;5010318;28;20498;-82
2023/07/24 11:08:24;;;;;;;3.88;2.72;;;20.40;99.90;;;;;;5011253;28;20462;-82
2023/07/24 11:10:50;;;;;;;2.70;2.38;;;20.50;99.90;;;;;;5006358;28;20445;-82
2023/07/24 11:13:17;;;;;;;2.83;2.50;;;20.40;99.90;;;;;;4998437;28;20404;-83
2023/07/24 11:15:43;;;;;;;4.00;2.58;;;20.60;99.90;;;;;;5005650;28;20403;-83
2023/07/24 11:18:10;;;;;;;2.92;2.47;;;20.10;99.90;;;;;;5015719;28;20505;-82
2023/07/24 11:20:47;;;;;;;2.20;2.00;;;20.80;99.90;;;;;;5004840;28;20410;-81
2023/07/24 11:23:14;;;;;;;1.98;1.77;;;20.90;99.90;;;;;;5006456;28;20400;-81
2023/07/24 11:25:40;;;;;;;2.70;2.28;;;21.20;99.90;;;;;;5011606;28;21028;-80
2023/07/24 11:28:07;;;;;;;3.10;2.20;;;21.40;99.90;;;;;;5001097;28;20409;-79
2023/07/24 11:30:33;;;;;;;2.10;1.90;;;21.40;99.90;;;;;;5012362;28;20380;-81
2023/07/24 11:33:01;;;;;;;2.90;2.40;;;21.20;99.90;;;;;;5006033;28;20412;-79
2023/07/24 11:35:27;;;;;;;2.90;1.75;;;21.10;99.90;;;;;;4998931;28;20818;-81
2023/07/24 11:37:52;;;;;;;3.58;2.70;;;20.90;99.90;;;;;;4996395;28;20417;-81
2023/07/24 11:40:19;;;;;;;2.90;2.08;;;21.10;99.90;;;;;;5007060;28;20411;-80
2023/07/24 11:42:47;;;;;;;2.97;2.20;;;20.90;99.90;;;;;;5002776;28;20436;-80
2023/07/24 11:45:12;;;;;;;2.55;2.10;;;20.90;99.90;;;;;;5013933;28;20517;-80
2023/07/24 11:47:46;;;;;;;2.60;2.40;;;20.60;99.90;;;;;;5008245;28;20970;-80
2023/07/24 11:50:12;;;;;;;2.42;1.90;;;20.40;99.90;;;;;;5006381;28;20885;-79
2023/07/24 11:52:45;;;;;;;2.30;2.10;;;20.40;99.90;;;;;;5005842;28;20432;-80
2023/07/24 11:55:30;;;;;;;2.20;2.00;;;20.00;99.90;;;;;;5007284;28;20385;-79
2023/07/24 11:57:57;;;;;;;2.30;2.10;;;20.30;99.90;;;;;;5007998;28;20407;-80
2023/07/24 12:00:23;;;;;;;2.75;2.50;;;20.30;99.90;;;;;;5009175;28;20405;-79
2023/07/24 12:02:50;;;;;;;2.72;2.00;;;20.20;99.90;;;;;;5013310;28;20401;-79
2023/07/24 12:05:16;;;;;;;3.00;2.50;;;20.40;99.90;;;;;;5014997;28;20384;-79
2023/07/24 12:07:46;;;;;;;2.78;2.50;;;20.60;99.90;;;;;;5007465;28;20410;-80
2023/07/24 12:10:13;;;;;;;3.00;2.67;;;20.50;99.90;;;;;;5007474;28;20389;-80
2023/07/24 12:12:40;;;;;;;2.90;2.60;;;20.70;99.90;;;;;;5002780;28;20453;-81
2023/07/24 12:15:09;;;;;;;2.55;2.35;;;20.50;99.90;;;;;;5032842;28;20426;-82
2023/07/24 12:17:36;;;;;;;3.53;2.70;;;20.50;99.90;;;;;;5006560;28;20410;-81
2023/07/24 12:20:02;;;;;;;3.40;2.80;;;20.50;99.90;;;;;;5015266;28;20416;-81
2023/07/24 12:22:27;;;;;;;2.80;2.20;;;20.30;99.90;;;;;;5004855;28;20405;-80
2023/07/24 12:24:53;;;;;;;2.60;2.40;;;20.40;99.90;;;;;;5014079;28;20779;-81
2023/07/24 12:27:19;;;;;;;3.80;2.87;;;20.20;99.90;;;;;;5016454;28;20829;-81
2023/07/24 12:29:44;;;;;;;2.75;2.50;;;20.00;99.90;;;;;;5010702;28;20407;-82
2023/07/24 12:32:10;;;;;;;4.97;2.53;;;19.80;99.90;;;;;;5014911;28;20472;-82
2023/07/24 12:34:38;;;;;;;2.40;2.00;;;20.10;99.90;;;;;;5006747;28;20437;-81
2023/07/24 12:37:03;;;;;;;3.10;2.80;;;20.20;99.90;;;;;;5010668;28;20441;-80
2023/07/24 12:39:31;;;;;;;3.20;2.37;;;19.90;99.90;;;;;;5015737;28;20393;-80
2023/07/24 12:41:57;;;;;;;3.00;2.70;;;19.90;99.90;;;;;;5014087;28;20429;-81
2023/07/24 12:44:23;;;;;;;4.60;2.40;;;19.90;99.90;;;;;;5015640;28;20389;-80